createdAt,value
2023-05-31T00:01:57.306Z,74.80
2023-05-31T00:04:25.570Z,74.90
2023-05-31T00:06:53.603Z,74.80
2023-05-31T00:09:21.538Z,75.00
2023-05-31T00:11:50.781Z,74.90
2023-05-31T00:14:18.686Z,74.30
2023-05-31T00:17:20.586Z,74.30
2023-05-31T00:19:34.575Z,74.00
2023-05-31T00:22:02.495Z,74.10
2023-05-31T00:24:30.401Z,74.10
2023-05-31T00:26:59.672Z,74.00
2023-05-31T00:29:27.882Z,74.10
2023-05-31T00:31:55.801Z,74.10
2023-05-31T00:34:23.942Z,74.50
2023-05-31T00:36:51.902Z,74.00
2023-05-31T00:39:20.235Z,73.90
2023-05-31T00:41:48.296Z,73.80
2023-05-31T00:44:17.741Z,74.00
2023-05-31T00:46:45.859Z,74.10
2023-05-31T00:49:14.150Z,74.00
2023-05-31T00:51:42.378Z,74.00
2023-05-31T00:54:11.306Z,74.70
2023-05-31T00:56:39.531Z,78.40
2023-05-31T00:59:07.594Z,79.90
2023-05-31T01:01:36.964Z,81.80
2023-05-31T01:04:05.164Z,83.10
2023-05-31T01:06:35.527Z,84.30
2023-05-31T01:09:06.725Z,85.40
2023-05-31T01:11:53.170Z,86.70
2023-05-31T01:14:29.696Z,87.50
2023-05-31T01:17:06.569Z,88.60
2023-05-31T01:19:48.639Z,89.90
2023-05-31T01:22:28.804Z,90.20
2023-05-31T01:25:23.489Z,90.40
2023-05-31T01:27:54.023Z,90.50
2023-05-31T01:30:23.891Z,90.70
2023-05-31T01:32:53.548Z,90.90
2023-05-31T01:35:21.736Z,91.10
2023-05-31T01:37:49.646Z,91.20
2023-05-31T01:40:18.306Z,91.50
2023-05-31T01:42:47.707Z,91.80
2023-05-31T01:45:17.961Z,91.90
2023-05-31T01:47:48.093Z,92.00
2023-05-31T01:50:16.800Z,92.20
2023-05-31T01:52:44.770Z,92.40
2023-05-31T01:55:12.730Z,92.50
2023-05-31T01:57:43.470Z,92.50
2023-05-31T02:00:13.498Z,92.60
2023-05-31T02:02:44.386Z,92.80
2023-05-31T02:05:14.123Z,92.90
2023-05-31T02:07:43.568Z,93.10
2023-05-31T02:10:12.823Z,93.30
2023-05-31T02:12:41.777Z,93.40
2023-05-31T02:15:11.914Z,93.50
2023-05-31T02:17:41.668Z,93.70
2023-05-31T02:20:14.204Z,93.70
2023-05-31T02:22:42.726Z,93.90
2023-05-31T02:25:11.892Z,94.30
2023-05-31T02:27:39.858Z,94.70
2023-05-31T02:30:09.080Z,94.90
2023-05-31T02:32:38.877Z,95.40
2023-05-31T02:35:08.140Z,95.90
2023-05-31T02:37:37.953Z,96.40
2023-05-31T02:40:09.378Z,96.80
2023-05-31T02:42:37.926Z,97.30
2023-05-31T02:45:07.228Z,97.80
2023-05-31T02:47:35.327Z,98.50
2023-05-31T02:50:03.208Z,99.10
2023-05-31T02:52:31.589Z,99.50
2023-05-31T02:55:00.815Z,99.90
2023-05-31T02:57:28.865Z,99.90
2023-05-31T03:00:01.025Z,99.90
2023-05-31T03:02:29.071Z,99.90
2023-05-31T03:04:57.053Z,99.90
2023-05-31T03:07:24.952Z,99.90
2023-05-31T03:09:53.020Z,99.90
2023-05-31T03:12:22.677Z,99.90
2023-05-31T03:14:50.963Z,99.90
2023-05-31T03:17:19.079Z,99.90
2023-05-31T03:19:47.272Z,99.90
2023-05-31T03:22:15.488Z,99.90
2023-05-31T03:24:44.650Z,99.90
2023-05-31T03:27:12.845Z,99.90
2023-05-31T03:29:46.630Z,99.90
2023-05-31T03:32:14.641Z,99.90
2023-05-31T03:34:42.648Z,99.90
2023-05-31T03:37:10.736Z,99.90
2023-05-31T03:39:39.126Z,99.90
2023-05-31T03:42:08.473Z,99.90
2023-05-31T03:44:36.424Z,99.90
2023-05-31T03:47:06.327Z,99.90
2023-05-31T03:49:34.233Z,99.90
2023-05-31T03:52:02.241Z,99.90
2023-05-31T03:54:31.154Z,99.90
2023-05-31T03:56:59.176Z,99.90
2023-05-31T03:59:27.150Z,99.90
2023-05-31T04:01:55.170Z,99.90
2023-05-31T04:04:24.705Z,99.90
2023-05-31T04:06:53.289Z,99.90
2023-05-31T04:09:21.504Z,99.90
2023-05-31T04:11:49.455Z,99.90
2023-05-31T04:14:17.470Z,99.90
2023-05-31T04:16:45.476Z,99.90
2023-05-31T04:19:13.442Z,99.90
2023-05-31T04:21:42.772Z,99.90
2023-05-31T04:24:10.744Z,99.90
2023-05-31T04:26:38.713Z,99.90
2023-05-31T04:29:06.564Z,99.90
2023-05-31T04:31:50.662Z,99.90
2023-05-31T04:34:20.633Z,99.90
2023-05-31T04:36:51.155Z,99.90
2023-05-31T04:39:21.399Z,99.90
2023-05-31T04:41:52.919Z,99.90
2023-05-31T04:44:22.283Z,99.90
2023-05-31T04:46:50.523Z,99.90
2023-05-31T04:49:20.328Z,99.90
2023-05-31T04:51:48.475Z,99.90
2023-05-31T04:54:18.416Z,99.90
2023-05-31T04:56:46.901Z,99.90
2023-05-31T04:59:15.145Z,99.90
2023-05-31T05:01:43.390Z,99.90
2023-05-31T05:04:11.474Z,99.90
2023-05-31T05:06:41.368Z,99.90
2023-05-31T05:09:10.305Z,99.90
2023-05-31T05:11:40.191Z,99.90
2023-05-31T05:14:08.122Z,99.90
2023-05-31T05:16:36.094Z,99.90
2023-05-31T05:19:04.119Z,99.90
2023-05-31T05:21:32.063Z,99.90
2023-05-31T05:23:59.987Z,99.90
2023-05-31T05:26:28.108Z,99.90
2023-05-31T05:28:57.664Z,99.90
2023-05-31T05:31:25.597Z,99.90
2023-05-31T05:33:53.514Z,99.90
2023-05-31T05:36:21.497Z,99.90
2023-05-31T05:38:49.562Z,99.90
2023-05-31T05:41:17.530Z,99.90
2023-05-31T05:43:45.472Z,99.90
2023-05-31T05:46:15.029Z,99.90
2023-05-31T05:48:43.409Z,99.90
2023-05-31T05:51:12.024Z,99.90
2023-05-31T05:53:40.926Z,99.90
2023-05-31T05:56:09.392Z,99.90
2023-05-31T05:58:37.797Z,99.90
2023-05-31T06:01:06.013Z,99.90
2023-05-31T06:03:36.270Z,99.90
2023-05-31T06:06:04.556Z,99.70
2023-05-31T06:08:32.551Z,99.60
2023-05-31T06:11:00.983Z,99.60
2023-05-31T06:13:28.959Z,99.00
2023-05-31T06:15:57.221Z,98.80
2023-05-31T06:18:25.426Z,97.50
2023-05-31T06:20:56.402Z,94.40
2023-05-31T06:23:24.493Z,93.40
2023-05-31T06:25:52.363Z,92.50
2023-05-31T06:28:20.488Z,92.00
2023-05-31T06:30:48.814Z,90.70
2023-05-31T06:33:16.711Z,90.40
2023-05-31T06:35:45.959Z,90.40
2023-05-31T06:38:17.735Z,89.50
2023-05-31T06:40:46.050Z,88.90
2023-05-31T06:43:13.991Z,89.90
2023-05-31T06:45:43.226Z,90.00
2023-05-31T06:48:11.357Z,90.10
2023-05-31T06:50:39.367Z,89.80
2023-05-31T06:53:10.250Z,90.20
2023-05-31T06:55:40.367Z,90.20
2023-05-31T06:58:08.426Z,89.10
2023-05-31T07:00:36.338Z,89.40
2023-05-31T07:03:04.426Z,89.60
2023-05-31T07:05:33.375Z,89.50
2023-05-31T07:08:01.477Z,89.20
2023-05-31T07:10:29.580Z,89.40
2023-05-31T07:12:59.118Z,89.40
2023-05-31T07:15:28.441Z,87.70
2023-05-31T07:17:56.846Z,87.20
2023-05-31T07:20:24.871Z,87.40
2023-05-31T07:22:53.172Z,86.90
2023-05-31T07:25:21.311Z,85.50
2023-05-31T07:27:49.246Z,82.20
2023-05-31T07:30:18.734Z,79.50
2023-05-31T07:32:46.693Z,78.80
2023-05-31T07:35:14.621Z,77.90
2023-05-31T07:37:43.653Z,76.70
2023-05-31T07:40:12.284Z,76.70
2023-05-31T07:42:40.135Z,76.60
2023-05-31T07:45:09.600Z,75.20
2023-05-31T07:47:41.328Z,75.10
2023-05-31T07:50:10.253Z,75.60
2023-05-31T07:52:38.159Z,74.80
2023-05-31T07:55:07.749Z,73.90
2023-05-31T07:57:36.102Z,73.20
2023-05-31T08:00:06.464Z,72.50
2023-05-31T08:02:34.482Z,72.10
2023-05-31T08:05:05.530Z,72.20
2023-05-31T08:07:33.516Z,72.60
2023-05-31T08:10:01.480Z,71.40
2023-05-31T08:12:31.735Z,71.20
2023-05-31T08:15:00.050Z,71.50
2023-05-31T08:17:28.667Z,70.60
2023-05-31T08:19:56.746Z,70.10
2023-05-31T08:22:26.456Z,68.90
2023-05-31T08:24:54.371Z,67.90
2023-05-31T08:27:23.397Z,67.70
2023-05-31T08:29:51.373Z,66.80
2023-05-31T08:32:19.630Z,66.60
2023-05-31T08:34:47.569Z,66.10
2023-05-31T08:37:15.552Z,66.10
2023-05-31T08:39:44.851Z,66.30
2023-05-31T08:42:17.053Z,65.30
2023-05-31T08:44:45.166Z,65.80
2023-05-31T08:47:29.569Z,65.20
2023-05-31T08:50:00.554Z,65.00
2023-05-31T08:52:29.609Z,64.40
2023-05-31T08:54:59.407Z,63.60
2023-05-31T08:57:29.310Z,64.30
2023-05-31T08:59:58.130Z,64.30
2023-05-31T09:02:27.017Z,63.70
2023-05-31T09:04:56.229Z,63.40
2023-05-31T09:07:24.170Z,62.80
2023-05-31T09:09:52.141Z,63.50
2023-05-31T09:12:21.525Z,64.10
2023-05-31T09:14:49.895Z,63.70
2023-05-31T09:17:20.237Z,62.90
2023-05-31T09:19:53.378Z,63.10
2023-05-31T09:22:23.291Z,63.30
2023-05-31T09:24:53.585Z,63.20
2023-05-31T09:27:23.297Z,62.90
2023-05-31T09:29:54.621Z,62.80
2023-05-31T09:32:22.825Z,62.90
2023-05-31T09:34:50.735Z,62.20
2023-05-31T09:37:25.188Z,62.30
2023-05-31T09:39:56.997Z,62.20
2023-05-31T09:42:29.949Z,61.60
2023-05-31T09:44:59.266Z,62.20
2023-05-31T09:47:27.658Z,62.50
2023-05-31T09:49:56.334Z,62.40
2023-05-31T09:52:31.802Z,63.10
2023-05-31T09:55:06.518Z,62.60
2023-05-31T09:57:41.685Z,62.70
2023-05-31T10:00:15.817Z,63.40
2023-05-31T10:02:44.753Z,63.30
2023-05-31T10:05:13.977Z,63.50
2023-05-31T10:07:42.536Z,63.30
2023-05-31T10:10:12.199Z,62.20
2023-05-31T10:12:52.645Z,62.00
2023-05-31T10:15:23.459Z,61.90
2023-05-31T10:17:59.440Z,63.60
2023-05-31T10:20:34.944Z,62.50
2023-05-31T10:23:07.289Z,62.60
2023-05-31T10:25:43.022Z,62.10
2023-05-31T10:28:16.763Z,61.50
2023-05-31T10:30:47.799Z,61.80
2023-05-31T10:33:17.912Z,60.40
2023-05-31T10:35:49.520Z,60.60
2023-05-31T10:38:19.863Z,61.00
2023-05-31T10:40:54.527Z,60.20
2023-05-31T10:43:31.240Z,59.60
2023-05-31T10:46:04.124Z,59.60
2023-05-31T10:48:41.406Z,59.60
2023-05-31T10:51:10.378Z,59.90
2023-05-31T10:53:39.451Z,59.40
2023-05-31T10:56:10.433Z,60.10
2023-05-31T10:58:41.007Z,58.50
2023-05-31T11:01:12.091Z,57.10
2023-05-31T11:03:47.484Z,56.40
2023-05-31T11:06:18.217Z,56.10
2023-05-31T11:09:00.142Z,55.90
2023-05-31T11:11:30.232Z,54.70
2023-05-31T11:14:01.126Z,54.50
2023-05-31T11:16:29.991Z,55.80
2023-05-31T11:19:06.491Z,55.60
2023-05-31T11:21:51.558Z,54.60
2023-05-31T11:24:29.950Z,53.10
2023-05-31T11:27:00.642Z,52.10
2023-05-31T11:29:59.514Z,50.40
2023-05-31T11:33:00.925Z,49.50
2023-05-31T11:35:33.222Z,47.60
2023-05-31T11:38:09.711Z,48.20
2023-05-31T11:40:38.347Z,47.80
2023-05-31T11:43:10.136Z,48.90
2023-05-31T11:45:45.542Z,47.70
2023-05-31T11:48:37.363Z,47.60
2023-05-31T11:51:06.101Z,45.90
2023-05-31T11:53:34.282Z,45.50
2023-05-31T11:56:02.893Z,44.70
2023-05-31T11:58:30.827Z,45.20
2023-05-31T12:01:03.725Z,44.30
2023-05-31T12:03:33.041Z,43.80
2023-05-31T12:06:01.541Z,43.30
2023-05-31T12:08:30.470Z,43.40
2023-05-31T12:11:05.707Z,41.60
2023-05-31T12:13:34.443Z,41.00
2023-05-31T12:16:06.321Z,40.50
2023-05-31T12:18:34.838Z,40.70
2023-05-31T12:21:08.100Z,41.00
2023-05-31T12:23:53.103Z,41.40
2023-05-31T12:26:22.487Z,42.20
2023-05-31T12:28:50.825Z,42.70
2023-05-31T12:31:24.738Z,41.40
2023-05-31T12:34:02.224Z,40.90
2023-05-31T12:36:30.229Z,39.90
2023-05-31T12:38:58.708Z,39.10
2023-05-31T12:41:26.826Z,38.90
2023-05-31T12:43:56.307Z,39.00
2023-05-31T12:46:25.637Z,38.00
2023-05-31T12:48:53.813Z,37.70
2023-05-31T12:51:23.493Z,38.10
2023-05-31T12:53:51.710Z,37.30
2023-05-31T12:56:19.684Z,36.50
2023-05-31T12:58:47.639Z,37.70
2023-05-31T13:01:15.617Z,38.20
2023-05-31T13:03:44.978Z,37.20
2023-05-31T13:06:12.871Z,37.00
2023-05-31T13:08:40.754Z,37.00
2023-05-31T13:11:08.686Z,36.90
2023-05-31T13:13:36.664Z,36.90
2023-05-31T13:16:05.926Z,35.50
2023-05-31T13:18:33.877Z,35.50
2023-05-31T13:21:03.788Z,36.80
2023-05-31T13:23:31.972Z,37.40
2023-05-31T13:25:59.947Z,37.20
2023-05-31T13:28:27.925Z,36.70
2023-05-31T13:30:55.947Z,37.60
2023-05-31T13:33:26.195Z,38.30
2023-05-31T13:35:57.505Z,38.60
2023-05-31T13:38:28.380Z,38.40
2023-05-31T13:40:56.865Z,38.10
2023-05-31T13:43:27.310Z,38.10
2023-05-31T13:45:58.958Z,37.70
2023-05-31T13:48:27.495Z,36.90
2023-05-31T13:50:55.994Z,36.60
2023-05-31T13:53:24.267Z,36.30
2023-05-31T13:56:03.079Z,36.20
2023-05-31T13:58:31.666Z,35.50
2023-05-31T14:00:59.615Z,35.30
2023-05-31T14:03:27.874Z,36.10
2023-05-31T14:05:55.983Z,36.90
2023-05-31T14:08:24.063Z,37.40
2023-05-31T14:10:53.309Z,36.90
2023-05-31T14:13:21.234Z,37.10
2023-05-31T14:15:49.542Z,36.90
2023-05-31T14:18:17.491Z,37.40
2023-05-31T14:20:46.878Z,36.80
2023-05-31T14:23:15.048Z,37.40
2023-05-31T14:25:42.942Z,37.50
2023-05-31T14:28:12.314Z,38.40
2023-05-31T14:30:40.269Z,39.40
2023-05-31T14:33:08.228Z,40.10
2023-05-31T14:35:36.671Z,40.20
2023-05-31T14:38:11.121Z,40.80
2023-05-31T14:40:53.312Z,41.00
2023-05-31T14:43:22.589Z,41.50
2023-05-31T14:45:50.530Z,42.60
2023-05-31T14:48:18.500Z,43.20
2023-05-31T14:50:46.415Z,43.90
2023-05-31T14:53:15.498Z,44.70
2023-05-31T14:55:43.412Z,44.40
2023-05-31T14:58:13.773Z,44.60
2023-05-31T15:00:43.080Z,44.40
2023-05-31T15:03:11.149Z,44.50
2023-05-31T15:05:39.089Z,44.80
2023-05-31T15:08:07.164Z,45.40
2023-05-31T15:10:35.105Z,45.70
2023-05-31T15:13:03.613Z,45.80
2023-05-31T15:15:31.568Z,45.30
2023-05-31T15:18:00.936Z,46.00
2023-05-31T15:20:29.090Z,46.40
2023-05-31T15:22:57.024Z,46.40
2023-05-31T15:25:25.049Z,47.50
2023-05-31T15:27:53.061Z,46.60
2023-05-31T15:30:21.087Z,47.00
2023-05-31T15:32:49.062Z,45.50
2023-05-31T15:35:18.433Z,45.40
2023-05-31T15:37:46.673Z,46.40
2023-05-31T15:40:14.696Z,45.80
2023-05-31T15:42:42.670Z,46.40
2023-05-31T15:45:11.312Z,46.20
2023-05-31T15:47:39.280Z,46.00
2023-05-31T15:50:07.965Z,47.20
2023-05-31T15:52:37.251Z,45.60
2023-05-31T15:55:05.764Z,45.10
2023-05-31T15:57:33.780Z,45.40
2023-05-31T16:00:01.730Z,45.20
2023-05-31T16:02:29.638Z,44.50
2023-05-31T16:04:57.575Z,44.90
2023-05-31T16:07:25.812Z,44.90
2023-05-31T16:09:55.393Z,44.90
2023-05-31T16:12:23.303Z,44.00
2023-05-31T16:14:51.413Z,44.40
2023-05-31T16:17:19.320Z,43.80
2023-05-31T16:19:47.313Z,44.10
2023-05-31T16:22:15.380Z,45.10
2023-05-31T16:24:43.370Z,44.40
2023-05-31T16:27:12.563Z,44.50
2023-05-31T16:29:40.491Z,44.50
2023-05-31T16:32:08.801Z,43.50
2023-05-31T16:34:37.327Z,42.70
2023-05-31T16:37:06.631Z,42.50
2023-05-31T16:39:35.509Z,42.80
2023-05-31T16:42:03.440Z,43.00
2023-05-31T16:44:32.671Z,43.30
2023-05-31T16:47:00.660Z,44.10
2023-05-31T16:49:28.577Z,43.50
2023-05-31T16:51:56.512Z,43.60
2023-05-31T16:54:24.497Z,43.70
2023-05-31T16:56:52.374Z,44.10
2023-05-31T16:59:20.323Z,43.00
2023-05-31T17:01:49.636Z,43.50
2023-05-31T17:04:17.821Z,43.30
2023-05-31T17:06:45.851Z,43.50
2023-05-31T17:09:13.810Z,43.80
2023-05-31T17:11:41.742Z,43.60
2023-05-31T17:14:09.701Z,43.90
2023-05-31T17:16:37.706Z,44.30
2023-05-31T17:19:07.026Z,44.30
2023-05-31T17:21:35.198Z,44.40
2023-05-31T17:24:03.235Z,44.20
2023-05-31T17:26:31.137Z,44.50
2023-05-31T17:28:59.072Z,44.70
2023-05-31T17:31:27.099Z,44.30
2023-05-31T17:33:55.084Z,44.30
2023-05-31T17:36:25.997Z,44.50
2023-05-31T17:38:54.394Z,44.10
2023-05-31T17:41:25.762Z,44.00
2023-05-31T17:43:54.054Z,44.00
2023-05-31T17:46:22.407Z,44.40
2023-05-31T17:48:51.644Z,44.50
2023-05-31T17:51:20.561Z,44.80
2023-05-31T17:53:49.815Z,45.20
2023-05-31T17:56:17.734Z,45.10
2023-05-31T17:58:45.756Z,45.40
2023-05-31T18:01:13.788Z,45.40
2023-05-31T18:03:41.791Z,45.30
2023-05-31T18:06:10.146Z,45.50
2023-05-31T18:08:38.062Z,45.40
2023-05-31T18:11:07.476Z,46.10
2023-05-31T18:13:37.213Z,45.90
2023-05-31T18:16:05.973Z,45.90
2023-05-31T18:18:34.143Z,46.10
2023-05-31T18:21:02.267Z,46.20
2023-05-31T18:23:30.496Z,46.60
2023-05-31T18:25:58.390Z,46.80
2023-05-31T18:28:27.690Z,46.90
2023-05-31T18:30:55.775Z,47.80
2023-05-31T18:33:23.820Z,47.50
2023-05-31T18:35:51.749Z,47.70
2023-05-31T18:38:20.384Z,48.30
2023-05-31T18:40:50.439Z,48.00
2023-05-31T18:43:21.842Z,49.80
2023-05-31T18:45:51.286Z,48.80
2023-05-31T18:48:19.388Z,49.10
2023-05-31T18:50:47.351Z,48.90
2023-05-31T18:53:15.369Z,50.70
2023-05-31T18:55:46.154Z,50.30
2023-05-31T18:58:14.171Z,50.50
2023-05-31T19:00:43.758Z,51.10
2023-05-31T19:03:13.271Z,51.30
2023-05-31T19:05:41.430Z,50.80
2023-05-31T19:08:09.387Z,50.20
2023-05-31T19:10:37.484Z,50.90
2023-05-31T19:13:05.433Z,52.40
2023-05-31T19:15:33.424Z,53.00
2023-05-31T19:18:13.848Z,52.10
2023-05-31T19:20:49.183Z,52.70
2023-05-31T19:23:17.629Z,53.70
2023-05-31T19:25:45.984Z,54.70
2023-05-31T19:28:14.065Z,54.80
2023-05-31T19:30:43.766Z,55.40
2023-05-31T19:33:12.754Z,54.20
2023-05-31T19:35:40.898Z,54.30
2023-05-31T19:38:10.728Z,55.20
2023-05-31T19:40:38.887Z,55.70
2023-05-31T19:43:07.618Z,56.80
2023-05-31T19:45:35.925Z,58.80
2023-05-31T19:48:08.062Z,58.90
2023-05-31T19:50:37.194Z,60.40
2023-05-31T19:53:05.399Z,60.70
2023-05-31T19:55:37.304Z,59.90
2023-05-31T19:58:05.382Z,61.20
2023-05-31T20:00:33.371Z,62.00
2023-05-31T20:03:01.427Z,63.60
2023-05-31T20:05:29.447Z,62.30
2023-05-31T20:07:57.385Z,63.50
2023-05-31T20:10:25.392Z,63.60
2023-05-31T20:12:54.712Z,64.30
2023-05-31T20:15:22.782Z,64.50
2023-05-31T20:17:51.125Z,62.70
2023-05-31T20:20:19.424Z,60.30
2023-05-31T20:22:47.462Z,62.10
2023-05-31T20:25:15.436Z,63.80
2023-05-31T20:27:43.630Z,64.40
2023-05-31T20:30:14.196Z,64.70
2023-05-31T20:32:42.155Z,64.90
2023-05-31T20:35:10.466Z,64.80
2023-05-31T20:37:38.499Z,64.80
2023-05-31T20:40:07.714Z,65.10
2023-05-31T20:42:35.593Z,65.20
2023-05-31T20:45:03.759Z,65.20
2023-05-31T20:47:34.524Z,65.30
2023-05-31T20:50:02.515Z,65.50
2023-05-31T20:52:30.574Z,65.80
2023-05-31T20:54:58.466Z,66.00
2023-05-31T20:57:26.852Z,66.20
2023-05-31T20:59:56.366Z,66.50
2023-05-31T21:02:24.995Z,66.70
2023-05-31T21:04:54.524Z,66.90
2023-05-31T21:07:22.546Z,67.10
2023-05-31T21:09:50.566Z,67.40
2023-05-31T21:12:18.818Z,67.60
2023-05-31T21:14:47.110Z,67.70
2023-05-31T21:17:15.432Z,68.10
2023-05-31T21:19:43.485Z,68.10
2023-05-31T21:22:12.795Z,68.30
2023-05-31T21:24:40.642Z,68.70
2023-05-31T21:27:08.799Z,68.80
2023-05-31T21:29:36.717Z,68.90
2023-05-31T21:32:04.906Z,69.40
2023-05-31T21:34:32.889Z,69.70
2023-05-31T21:37:01.060Z,70.00
2023-05-31T21:39:31.461Z,70.10
2023-05-31T21:41:59.435Z,70.30
2023-05-31T21:44:27.360Z,70.70
2023-05-31T21:46:55.380Z,71.20
2023-05-31T21:49:23.330Z,71.40
2023-05-31T21:51:51.280Z,71.60
2023-05-31T21:54:19.205Z,71.70
2023-05-31T21:56:48.506Z,72.00
2023-05-31T21:59:16.434Z,72.40
2023-05-31T22:01:44.866Z,72.50
2023-05-31T22:04:12.888Z,72.70
2023-05-31T22:06:40.849Z,72.80
2023-05-31T22:09:08.787Z,74.00
2023-05-31T22:11:36.848Z,73.30
2023-05-31T22:14:06.160Z,73.40
2023-05-31T22:16:34.118Z,73.20
2023-05-31T22:19:03.532Z,73.20
2023-05-31T22:21:34.171Z,73.10
2023-05-31T22:24:02.554Z,73.30
2023-05-31T22:26:31.487Z,74.00
2023-05-31T22:28:59.565Z,73.10
2023-05-31T22:31:30.963Z,72.80
2023-05-31T22:33:59.193Z,72.90
2023-05-31T22:36:27.143Z,72.90
2023-05-31T22:38:55.031Z,72.90
2023-05-31T22:41:23.010Z,73.10
2023-05-31T22:43:50.961Z,73.30
2023-05-31T22:46:18.906Z,74.20
2023-05-31T22:48:48.239Z,73.60
2023-05-31T22:51:16.978Z,73.30
2023-05-31T22:53:45.507Z,73.50
2023-05-31T22:56:13.455Z,73.90
2023-05-31T22:58:41.605Z,74.00
2023-05-31T23:01:09.521Z,74.20
2023-05-31T23:03:37.519Z,74.00
2023-05-31T23:06:07.094Z,73.90
2023-05-31T23:08:34.976Z,73.60
2023-05-31T23:11:03.748Z,73.50
2023-05-31T23:13:33.098Z,73.90
2023-05-31T23:16:01.756Z,74.50
2023-05-31T23:18:29.947Z,74.80
2023-05-31T23:20:58.270Z,75.00
2023-05-31T23:23:27.808Z,75.20
2023-05-31T23:25:55.774Z,75.40
2023-05-31T23:28:23.789Z,75.70
2023-05-31T23:30:51.859Z,76.10
2023-05-31T23:33:20.608Z,77.60
2023-05-31T23:35:48.525Z,78.70
2023-05-31T23:38:16.447Z,78.70
2023-05-31T23:40:45.887Z,78.80
2023-05-31T23:43:13.806Z,80.00
2023-05-31T23:45:41.737Z,79.40
2023-05-31T23:48:09.745Z,78.40
2023-05-31T23:50:37.957Z,79.70
2023-05-31T23:53:05.865Z,79.20
2023-05-31T23:55:34.012Z,80.60
2023-05-31T23:58:03.334Z,81.70
